createdAt,value
2018-03-18T00:01:53.131Z,4.10
2018-03-18T00:04:25.630Z,5.37
2018-03-18T00:06:58.098Z,4.87
2018-03-18T00:09:30.596Z,4.67
2018-03-18T00:12:03.075Z,4.13
2018-03-18T00:14:35.741Z,5.87
2018-03-18T00:17:33.470Z,3.67
2018-03-18T00:20:09.041Z,4.77
2018-03-18T00:22:41.671Z,5.30
2018-03-18T00:25:14.311Z,3.83
2018-03-18T00:27:46.787Z,5.50
2018-03-18T00:30:19.283Z,4.47
2018-03-18T00:32:51.755Z,4.80
2018-03-18T00:35:24.251Z,4.93
2018-03-18T00:37:56.728Z,4.13
2018-03-18T00:40:29.225Z,5.90
2018-03-18T00:43:01.707Z,5.17
2018-03-18T00:45:34.259Z,4.60
2018-03-18T00:48:07.063Z,5.27
2018-03-18T00:50:39.609Z,3.83
2018-03-18T00:53:12.178Z,3.47
2018-03-18T00:55:44.777Z,6.07
2018-03-18T00:58:17.322Z,6.27
2018-03-18T01:00:49.806Z,5.40
2018-03-18T01:03:22.301Z,4.60
2018-03-18T01:05:54.771Z,5.13
2018-03-18T01:08:27.271Z,4.67
2018-03-18T01:10:59.745Z,5.00
2018-03-18T01:13:32.236Z,5.30
2018-03-18T01:16:04.985Z,3.87
2018-03-18T01:18:37.802Z,5.60
2018-03-18T01:21:10.404Z,4.93
2018-03-18T01:23:43.048Z,4.33
2018-03-18T01:26:15.555Z,3.67
2018-03-18T01:28:48.059Z,6.23
2018-03-18T01:31:20.535Z,5.47
2018-03-18T01:33:53.031Z,6.33
2018-03-18T01:36:25.526Z,5.70
2018-03-18T01:38:58.028Z,4.87
2018-03-18T01:41:30.504Z,5.90
2018-03-18T01:44:03.007Z,5.83
2018-03-18T01:46:35.851Z,5.17
2018-03-18T01:49:08.601Z,4.47
2018-03-18T01:51:41.161Z,4.53
2018-03-18T01:54:13.830Z,6.03
2018-03-18T01:56:46.392Z,5.53
2018-03-18T01:59:18.931Z,6.50
2018-03-18T02:01:51.412Z,6.33
2018-03-18T02:04:23.915Z,5.00
2018-03-18T02:06:56.398Z,4.70
2018-03-18T02:09:28.889Z,6.30
2018-03-18T02:12:01.376Z,6.20
2018-03-18T02:14:33.874Z,5.13
2018-03-18T02:17:06.605Z,4.53
2018-03-18T02:19:39.756Z,4.57
2018-03-18T02:22:13.059Z,6.50
2018-03-18T02:24:45.626Z,6.00
2018-03-18T02:27:18.719Z,5.60
2018-03-18T02:29:51.269Z,3.50
2018-03-18T02:32:23.751Z,4.97
2018-03-18T02:34:56.261Z,4.53
2018-03-18T02:37:28.742Z,4.37
2018-03-18T02:40:01.232Z,5.50
2018-03-18T02:42:33.708Z,5.63
2018-03-18T02:45:06.443Z,5.20
2018-03-18T02:47:39.185Z,5.53
2018-03-18T02:50:11.806Z,4.87
2018-03-18T02:52:44.441Z,5.97
2018-03-18T02:55:17.912Z,6.63
2018-03-18T02:57:50.410Z,5.60
2018-03-18T03:00:22.910Z,4.83
2018-03-18T03:02:55.388Z,5.47
2018-03-18T03:05:27.885Z,5.90
2018-03-18T03:08:00.354Z,5.07
2018-03-18T03:10:32.851Z,4.50
2018-03-18T03:13:05.522Z,5.40
2018-03-18T03:15:39.072Z,4.63
2018-03-18T03:18:11.643Z,4.20
2018-03-18T03:20:44.264Z,3.70
2018-03-18T03:23:16.833Z,4.50
2018-03-18T03:25:49.366Z,5.30
2018-03-18T03:28:21.850Z,6.23
2018-03-18T03:30:54.347Z,5.60
2018-03-18T03:33:26.825Z,5.43
2018-03-18T03:35:59.336Z,6.00
2018-03-18T03:38:31.804Z,4.80
2018-03-18T03:41:04.415Z,4.23
2018-03-18T03:43:37.084Z,4.40
2018-03-18T03:46:09.716Z,5.97
2018-03-18T03:48:42.285Z,6.17
2018-03-18T03:51:14.842Z,4.40
2018-03-18T03:53:47.331Z,5.47
2018-03-18T03:56:19.827Z,5.83
2018-03-18T03:58:52.309Z,4.80
2018-03-18T04:01:24.804Z,4.33
2018-03-18T04:03:57.283Z,6.77
2018-03-18T04:06:29.778Z,4.30
2018-03-18T04:09:02.259Z,5.63
2018-03-18T04:11:34.878Z,4.77
2018-03-18T04:14:07.522Z,5.80
2018-03-18T04:16:40.195Z,6.43
2018-03-18T04:19:12.796Z,4.10
2018-03-18T04:21:45.358Z,3.47
2018-03-18T04:24:17.850Z,5.43
2018-03-18T04:26:50.347Z,4.97
2018-03-18T04:29:22.819Z,4.90
2018-03-18T04:31:55.306Z,3.70
2018-03-18T04:34:27.782Z,5.90
2018-03-18T04:37:00.279Z,3.00
2018-03-18T04:39:32.786Z,5.77
2018-03-18T04:42:05.435Z,4.53
2018-03-18T04:44:38.291Z,3.77
2018-03-18T04:47:10.832Z,5.60
2018-03-18T04:49:43.383Z,5.07
2018-03-18T04:52:15.870Z,5.07
2018-03-18T04:54:48.362Z,3.97
2018-03-18T04:57:20.839Z,4.23
2018-03-18T04:59:53.339Z,5.57
2018-03-18T05:02:25.822Z,4.80
2018-03-18T05:04:58.326Z,4.50
2018-03-18T05:07:30.812Z,3.93
2018-03-18T05:10:03.306Z,5.17
2018-03-18T05:12:35.898Z,4.97
2018-03-18T05:15:08.680Z,3.80
2018-03-18T05:17:41.346Z,4.97
2018-03-18T05:20:13.926Z,5.07
2018-03-18T05:22:46.435Z,3.60
2018-03-18T05:25:18.987Z,3.40
2018-03-18T05:27:51.463Z,5.47
2018-03-18T05:30:23.950Z,3.17
2018-03-18T05:32:56.423Z,4.67
2018-03-18T05:35:28.914Z,5.03
2018-03-18T05:38:01.397Z,3.77
2018-03-18T05:40:33.887Z,5.23
2018-03-18T05:43:06.786Z,5.67
2018-03-18T05:45:39.499Z,4.27
2018-03-18T05:48:12.088Z,4.83
2018-03-18T05:50:44.649Z,4.87
2018-03-18T05:53:17.169Z,4.20
2018-03-18T05:55:49.665Z,4.13
2018-03-18T05:58:22.144Z,3.67
2018-03-18T06:00:54.638Z,3.83
2018-03-18T06:03:27.115Z,3.53
2018-03-18T06:05:59.608Z,4.40
2018-03-18T06:08:32.078Z,5.17
2018-03-18T06:11:04.640Z,3.93
2018-03-18T06:13:37.341Z,4.80
2018-03-18T06:16:09.972Z,4.83
2018-03-18T06:18:42.501Z,4.27
2018-03-18T06:21:15.023Z,5.20
2018-03-18T06:23:47.515Z,4.97
2018-03-18T06:26:20.019Z,4.00
2018-03-18T06:28:52.490Z,4.80
2018-03-18T06:31:25.012Z,4.37
2018-03-18T06:33:57.483Z,3.47
2018-03-18T06:36:29.970Z,4.40
2018-03-18T06:39:02.439Z,4.40
2018-03-18T06:41:35.041Z,2.97
2018-03-18T06:44:08.195Z,3.30
2018-03-18T06:46:40.762Z,4.23
2018-03-18T06:49:13.286Z,5.07
2018-03-18T06:51:45.889Z,3.77
2018-03-18T06:54:18.371Z,4.80
2018-03-18T06:56:50.871Z,4.97
2018-03-18T06:59:23.394Z,4.30
2018-03-18T07:01:55.886Z,4.33
2018-03-18T07:04:28.358Z,4.13
2018-03-18T07:07:00.870Z,4.13
2018-03-18T07:09:33.348Z,4.70
2018-03-18T07:12:06.172Z,4.67
2018-03-18T07:14:38.875Z,3.80
2018-03-18T07:17:11.562Z,3.33
2018-03-18T07:19:44.149Z,4.40
2018-03-18T07:22:16.764Z,4.70
2018-03-18T07:24:49.302Z,4.33
2018-03-18T07:27:21.813Z,4.47
2018-03-18T07:29:54.298Z,4.67
2018-03-18T07:32:26.793Z,5.07
2018-03-18T07:34:59.262Z,4.60
2018-03-18T07:37:31.762Z,4.60
2018-03-18T07:40:04.554Z,4.83
2018-03-18T07:42:37.650Z,2.77
2018-03-18T07:45:10.291Z,5.03
2018-03-18T07:47:42.942Z,2.67
2018-03-18T07:50:15.540Z,4.10
2018-03-18T07:52:48.101Z,3.67
2018-03-18T07:55:20.602Z,4.07
2018-03-18T07:57:53.096Z,3.43
2018-03-18T08:00:25.574Z,3.30
2018-03-18T08:02:58.075Z,2.90
2018-03-18T08:05:30.560Z,3.77
2018-03-18T08:08:03.058Z,2.80
2018-03-18T08:10:35.794Z,3.47
2018-03-18T08:13:08.676Z,3.30
2018-03-18T08:15:41.277Z,4.27
2018-03-18T08:18:13.846Z,3.90
2018-03-18T08:20:46.388Z,3.50
2018-03-18T08:23:18.978Z,3.57
2018-03-18T08:25:51.478Z,3.80
2018-03-18T08:28:23.956Z,3.13
2018-03-18T08:30:56.442Z,3.57
2018-03-18T08:33:28.915Z,3.40
2018-03-18T08:36:01.415Z,4.30
2018-03-18T08:38:33.901Z,3.50
2018-03-18T08:41:06.760Z,3.73
2018-03-18T08:43:39.595Z,2.87
2018-03-18T08:46:12.229Z,3.10
2018-03-18T08:48:44.743Z,3.67
2018-03-18T08:51:17.276Z,2.97
2018-03-18T08:53:49.750Z,4.30
2018-03-18T08:56:22.238Z,3.00
2018-03-18T08:58:54.712Z,3.13
2018-03-18T09:01:27.211Z,2.70
2018-03-18T09:03:59.684Z,3.77
2018-03-18T09:06:32.175Z,3.70
2018-03-18T09:09:04.913Z,3.80
2018-03-18T09:11:38.123Z,3.77
2018-03-18T09:14:10.732Z,3.50
2018-03-18T09:16:43.274Z,3.47
2018-03-18T09:19:15.902Z,3.47
2018-03-18T09:21:48.474Z,3.03
2018-03-18T09:24:20.988Z,3.37
2018-03-18T09:26:53.493Z,3.50
2018-03-18T09:29:26.495Z,3.27
2018-03-18T09:31:58.998Z,3.23
2018-03-18T09:34:31.472Z,2.87
2018-03-18T09:37:03.985Z,3.20
2018-03-18T09:39:36.759Z,2.50
2018-03-18T09:42:09.567Z,3.20
2018-03-18T09:44:42.196Z,3.37
2018-03-18T09:47:14.766Z,3.10
2018-03-18T09:49:47.429Z,3.40
2018-03-18T09:52:19.938Z,3.40
2018-03-18T09:54:52.397Z,2.27
2018-03-18T09:57:24.883Z,4.10
2018-03-18T09:59:57.350Z,3.93
2018-03-18T10:02:29.877Z,2.90
2018-03-18T10:05:02.327Z,3.43
2018-03-18T10:07:35.183Z,2.97
2018-03-18T10:10:07.783Z,2.77
2018-03-18T10:12:40.868Z,3.10
2018-03-18T10:15:13.428Z,3.27
2018-03-18T10:17:46.151Z,3.27
2018-03-18T10:20:18.667Z,2.33
2018-03-18T10:22:51.167Z,3.77
2018-03-18T10:25:23.640Z,3.87
2018-03-18T10:27:56.155Z,2.23
2018-03-18T10:30:28.626Z,2.43
2018-03-18T10:33:01.118Z,3.63
2018-03-18T10:35:33.588Z,2.87
2018-03-18T10:38:06.229Z,2.53
2018-03-18T10:40:39.349Z,2.13
2018-03-18T10:43:11.919Z,3.40
2018-03-18T10:45:44.509Z,3.43
2018-03-18T10:48:17.049Z,3.07
2018-03-18T10:50:49.541Z,3.10
2018-03-18T10:53:22.029Z,2.47
2018-03-18T10:55:54.505Z,2.53
2018-03-18T10:58:27.004Z,3.70
2018-03-18T11:01:05.143Z,3.40
2018-03-18T11:03:40.402Z,3.43
2018-03-18T11:06:12.927Z,2.47
2018-03-18T11:08:45.552Z,2.10
2018-03-18T11:11:18.056Z,3.07
2018-03-18T11:13:51.380Z,3.43
2018-03-18T11:16:23.857Z,3.30
2018-03-18T11:18:56.356Z,3.10
2018-03-18T11:21:28.830Z,2.00
2018-03-18T11:24:01.324Z,3.20
2018-03-18T11:26:33.808Z,3.20
2018-03-18T11:29:06.434Z,3.10
2018-03-18T11:31:39.078Z,3.20
2018-03-18T11:34:26.443Z,2.40
2018-03-18T11:36:58.940Z,2.10
2018-03-18T11:39:31.414Z,3.03
2018-03-18T11:42:03.907Z,2.77
2018-03-18T11:44:36.517Z,3.03
2018-03-18T11:47:09.067Z,3.10
2018-03-18T11:49:41.567Z,3.40
2018-03-18T11:52:14.096Z,2.93
2018-03-18T11:54:46.577Z,3.00
2018-03-18T11:57:19.127Z,2.07
2018-03-18T11:59:51.602Z,2.80
2018-03-18T12:02:24.096Z,2.90
2018-03-18T12:04:56.564Z,2.70
2018-03-18T12:07:29.046Z,2.87
2018-03-18T12:10:01.519Z,2.70
2018-03-18T12:12:34.014Z,3.20
2018-03-18T12:15:06.567Z,2.33
2018-03-18T12:17:39.233Z,2.50
2018-03-18T12:20:11.743Z,2.87
2018-03-18T12:22:44.250Z,2.50
2018-03-18T12:25:16.735Z,2.43
2018-03-18T12:27:49.234Z,3.10
2018-03-18T12:30:21.706Z,2.53
2018-03-18T12:32:54.190Z,2.77
2018-03-18T12:35:26.667Z,2.20
2018-03-18T12:37:59.165Z,3.37
2018-03-18T12:40:33.447Z,2.13
2018-03-18T12:43:17.891Z,2.40
2018-03-18T12:45:50.360Z,2.70
2018-03-18T12:48:22.854Z,2.37
2018-03-18T12:50:55.334Z,2.83
2018-03-18T12:53:27.825Z,2.70
2018-03-18T12:56:00.299Z,2.50
2018-03-18T12:58:32.860Z,6.67
2018-03-18T13:01:05.398Z,2.80
2018-03-18T13:03:38.140Z,3.40
2018-03-18T13:06:10.693Z,2.53
2018-03-18T13:08:43.191Z,3.00
2018-03-18T13:11:15.662Z,3.30
2018-03-18T13:13:48.167Z,3.87
2018-03-18T13:16:20.653Z,3.00
2018-03-18T13:18:53.151Z,2.60
2018-03-18T13:21:25.626Z,2.33
2018-03-18T13:23:58.123Z,2.80
2018-03-18T13:26:30.591Z,1.87
2018-03-18T13:29:03.079Z,2.73
2018-03-18T13:31:35.562Z,3.03
2018-03-18T13:34:08.116Z,2.67
2018-03-18T13:36:40.595Z,2.50
2018-03-18T13:39:13.116Z,2.50
2018-03-18T13:41:45.597Z,3.10
2018-03-18T13:44:18.088Z,2.70
2018-03-18T13:46:50.564Z,2.80
2018-03-18T13:49:23.065Z,2.03
2018-03-18T13:51:55.535Z,2.80
2018-03-18T13:54:28.067Z,2.40
2018-03-18T13:57:00.524Z,3.07
2018-03-18T13:59:33.012Z,1.90
2018-03-18T14:02:05.490Z,2.57
2018-03-18T14:04:38.044Z,3.37
2018-03-18T14:07:10.522Z,3.30
2018-03-18T14:09:43.029Z,3.03
2018-03-18T14:12:15.497Z,3.10
2018-03-18T14:14:47.996Z,2.93
2018-03-18T14:17:21.319Z,2.77
2018-03-18T14:19:53.808Z,3.20
2018-03-18T14:22:26.275Z,2.53
2018-03-18T14:24:58.772Z,3.20
2018-03-18T14:27:31.248Z,3.17
2018-03-18T14:30:03.734Z,2.60
2018-03-18T14:32:36.252Z,2.63
2018-03-18T14:35:08.796Z,3.03
2018-03-18T14:37:41.274Z,2.27
2018-03-18T14:40:13.787Z,2.90
2018-03-18T14:42:46.259Z,2.77
2018-03-18T14:45:18.754Z,2.33
2018-03-18T14:47:51.246Z,3.43
2018-03-18T14:50:23.747Z,3.33
2018-03-18T14:52:56.223Z,3.03
2018-03-18T14:55:28.731Z,3.27
2018-03-18T14:58:01.202Z,2.90
2018-03-18T15:00:33.693Z,3.47
2018-03-18T15:03:06.178Z,3.27
2018-03-18T15:05:38.671Z,3.30
2018-03-18T15:08:11.143Z,2.97
2018-03-18T15:10:43.655Z,3.40
2018-03-18T15:13:16.132Z,3.73
2018-03-18T15:15:48.625Z,2.97
2018-03-18T15:18:21.112Z,3.20
2018-03-18T15:20:53.624Z,3.40
2018-03-18T15:23:26.118Z,3.30
2018-03-18T15:25:58.626Z,3.30
2018-03-18T15:28:31.100Z,3.10
2018-03-18T15:31:03.590Z,3.03
2018-03-18T15:33:36.138Z,2.90
2018-03-18T15:36:08.726Z,2.43
2018-03-18T15:38:41.230Z,3.17
2018-03-18T15:41:13.755Z,2.80
2018-03-18T15:43:46.222Z,2.50
2018-03-18T15:46:18.711Z,3.10
2018-03-18T15:48:51.182Z,2.07
2018-03-18T15:51:23.773Z,2.97
2018-03-18T15:53:56.158Z,2.40
2018-03-18T15:56:28.648Z,3.10
2018-03-18T15:59:01.161Z,2.53
2018-03-18T16:01:33.635Z,3.30
2018-03-18T16:04:06.285Z,3.20
2018-03-18T16:06:38.799Z,3.00
2018-03-18T16:09:11.326Z,2.80
2018-03-18T16:11:43.838Z,2.83
2018-03-18T16:14:16.335Z,2.83
2018-03-18T16:16:48.804Z,3.30
2018-03-18T16:19:21.296Z,3.13
2018-03-18T16:21:53.770Z,2.57
2018-03-18T16:24:26.264Z,2.37
2018-03-18T16:26:58.739Z,2.33
2018-03-18T16:29:43.018Z,2.93
2018-03-18T16:32:15.503Z,3.23
2018-03-18T16:34:47.999Z,2.93
2018-03-18T16:37:21.331Z,2.90
2018-03-18T16:39:53.823Z,3.07
2018-03-18T16:42:26.315Z,2.90
2018-03-18T16:44:58.811Z,3.37
2018-03-18T16:47:31.288Z,2.80
2018-03-18T16:50:03.804Z,2.20
2018-03-18T16:52:36.329Z,2.17
2018-03-18T16:55:08.908Z,2.80
2018-03-18T16:57:41.414Z,2.97
2018-03-18T17:00:13.971Z,2.80
2018-03-18T17:02:46.447Z,3.47
2018-03-18T17:05:18.942Z,2.60
2018-03-18T17:07:51.406Z,2.70
2018-03-18T17:10:23.895Z,2.70
2018-03-18T17:12:56.370Z,2.70
2018-03-18T17:15:28.863Z,2.07
2018-03-18T17:18:01.452Z,2.97
2018-03-18T17:20:33.930Z,3.10
2018-03-18T17:23:06.491Z,3.40
2018-03-18T17:25:39.031Z,2.70
2018-03-18T17:28:11.601Z,2.60
2018-03-18T17:30:44.143Z,2.17
2018-03-18T17:33:16.625Z,2.37
2018-03-18T17:35:49.112Z,2.50
2018-03-18T17:38:21.587Z,3.00
2018-03-18T17:40:54.078Z,2.80
2018-03-18T17:43:26.553Z,2.87
2018-03-18T17:46:10.768Z,2.80
2018-03-18T17:48:55.199Z,2.83
2018-03-18T17:51:39.488Z,2.40
2018-03-18T17:54:23.783Z,2.83
2018-03-18T17:56:56.294Z,4.27
2018-03-18T17:59:28.767Z,6.40
2018-03-18T18:02:01.266Z,10.53
2018-03-18T18:04:33.759Z,13.43
2018-03-18T18:07:06.310Z,7.73
2018-03-18T18:09:38.854Z,13.13
2018-03-18T18:12:11.414Z,7.30
2018-03-18T18:14:43.968Z,7.03
2018-03-18T18:17:16.468Z,4.27
2018-03-18T18:19:48.951Z,9.13
2018-03-18T18:22:21.443Z,5.30
2018-03-18T18:24:53.918Z,3.13
2018-03-18T18:27:26.412Z,2.97
2018-03-18T18:29:58.876Z,3.03
2018-03-18T18:32:31.366Z,3.23
2018-03-18T18:35:03.879Z,2.60
2018-03-18T18:37:36.418Z,2.33
2018-03-18T18:40:09.027Z,2.70
2018-03-18T18:42:41.579Z,3.07
2018-03-18T18:45:14.068Z,2.37
2018-03-18T18:47:46.583Z,2.43
2018-03-18T18:50:19.050Z,2.77
2018-03-18T18:52:51.540Z,3.07
2018-03-18T18:55:24.015Z,2.93
2018-03-18T18:57:56.503Z,3.00
2018-03-18T19:00:28.974Z,2.90
2018-03-18T19:03:01.498Z,2.80
2018-03-18T19:05:33.954Z,3.10
2018-03-18T19:08:06.526Z,2.80
2018-03-18T19:10:39.080Z,3.60
2018-03-18T19:13:11.716Z,2.77
2018-03-18T19:15:44.215Z,2.93
2018-03-18T19:18:16.733Z,3.00
2018-03-18T19:20:49.211Z,3.30
2018-03-18T19:23:21.700Z,2.77
2018-03-18T19:25:54.175Z,3.83
2018-03-18T19:28:26.660Z,3.23
2018-03-18T19:30:59.127Z,3.17
2018-03-18T19:33:31.654Z,3.20
2018-03-18T19:36:04.141Z,3.00
2018-03-18T19:38:36.869Z,3.20
2018-03-18T19:41:09.530Z,2.83
2018-03-18T19:43:42.069Z,3.73
2018-03-18T19:46:14.620Z,3.37
2018-03-18T19:48:47.093Z,3.23
2018-03-18T19:51:19.590Z,3.50
2018-03-18T19:53:52.058Z,3.37
2018-03-18T19:56:24.538Z,3.80
2018-03-18T19:58:57.008Z,3.77
2018-03-18T20:01:29.503Z,4.73
2018-03-18T20:04:01.977Z,4.07
2018-03-18T20:06:34.509Z,3.70
2018-03-18T20:09:07.235Z,6.47
2018-03-18T20:11:39.802Z,4.73
2018-03-18T20:14:12.282Z,3.70
2018-03-18T20:16:44.795Z,3.67
2018-03-18T20:19:17.266Z,3.00
2018-03-18T20:21:49.763Z,3.47
2018-03-18T20:24:22.246Z,3.00
2018-03-18T20:26:54.742Z,3.03
2018-03-18T20:29:27.218Z,3.30
2018-03-18T20:31:59.706Z,3.20
2018-03-18T20:34:32.179Z,2.30
2018-03-18T20:37:04.685Z,3.13
2018-03-18T20:39:37.209Z,3.27
2018-03-18T20:42:09.801Z,2.60
2018-03-18T20:44:42.362Z,3.13
2018-03-18T20:47:14.926Z,3.10
2018-03-18T20:49:47.438Z,3.20
2018-03-18T20:52:19.944Z,3.00
2018-03-18T20:54:52.419Z,2.90
2018-03-18T20:57:24.915Z,3.07
2018-03-18T20:59:57.409Z,3.20
2018-03-18T21:02:29.903Z,3.20
2018-03-18T21:05:02.387Z,3.27
2018-03-18T21:07:34.958Z,3.20
2018-03-18T21:10:07.746Z,2.97
2018-03-18T21:12:40.287Z,2.97
2018-03-18T21:15:12.826Z,3.60
2018-03-18T21:17:45.401Z,3.10
2018-03-18T21:20:17.879Z,3.50
2018-03-18T21:22:50.372Z,3.30
2018-03-18T21:25:22.838Z,3.43
2018-03-18T21:27:55.386Z,2.80
2018-03-18T21:30:28.093Z,2.90
2018-03-18T21:33:00.615Z,3.03
2018-03-18T21:35:33.079Z,3.00
2018-03-18T21:38:05.702Z,2.93
2018-03-18T21:40:38.597Z,3.17
2018-03-18T21:43:11.342Z,2.07
2018-03-18T21:45:43.864Z,2.90
2018-03-18T21:48:16.377Z,3.20
2018-03-18T21:50:48.858Z,3.13
2018-03-18T21:53:21.346Z,3.40
2018-03-18T21:55:53.819Z,3.53
2018-03-18T21:58:26.316Z,3.57
2018-03-18T22:00:58.794Z,3.30
2018-03-18T22:03:31.286Z,3.10
2018-03-18T22:06:03.763Z,5.87
2018-03-18T22:08:36.350Z,3.90
2018-03-18T22:11:09.329Z,3.70
2018-03-18T22:13:41.947Z,3.57
2018-03-18T22:16:14.514Z,3.20
2018-03-18T22:18:47.022Z,3.23
2018-03-18T22:21:19.498Z,3.87
2018-03-18T22:23:51.987Z,3.67
2018-03-18T22:26:24.454Z,3.87
2018-03-18T22:28:56.998Z,4.00
2018-03-18T22:31:29.435Z,4.17
2018-03-18T22:34:01.931Z,3.33
2018-03-18T22:36:34.423Z,4.27
2018-03-18T22:39:07.131Z,3.60
2018-03-18T22:41:39.879Z,4.27
2018-03-18T22:44:12.387Z,4.20
2018-03-18T22:46:45.015Z,4.03
2018-03-18T22:49:17.575Z,3.67
2018-03-18T22:51:50.046Z,3.40
2018-03-18T22:54:22.535Z,3.70
2018-03-18T22:56:55.006Z,3.30
2018-03-18T22:59:27.501Z,3.57
2018-03-18T23:01:59.981Z,3.43
2018-03-18T23:04:32.474Z,3.37
2018-03-18T23:07:05.495Z,3.80
2018-03-18T23:09:38.356Z,4.13
2018-03-18T23:12:10.926Z,4.60
2018-03-18T23:14:43.520Z,4.40
2018-03-18T23:17:16.058Z,3.70
2018-03-18T23:19:48.530Z,2.53
2018-03-18T23:22:21.018Z,4.03
2018-03-18T23:24:53.489Z,3.60
2018-03-18T23:27:25.990Z,3.70
2018-03-18T23:29:58.453Z,3.70
2018-03-18T23:32:30.965Z,3.30
2018-03-18T23:35:03.443Z,3.67
2018-03-18T23:37:36.022Z,4.00
2018-03-18T23:40:08.671Z,4.60
2018-03-18T23:42:41.243Z,3.93
2018-03-18T23:45:13.820Z,3.80
2018-03-18T23:47:46.327Z,3.80
2018-03-18T23:50:18.821Z,3.77
2018-03-18T23:52:51.319Z,4.43
2018-03-18T23:55:23.791Z,4.00
2018-03-18T23:57:56.287Z,3.70
